Nast, Colorado
Current Conditions -  °F | °C
As of 12:41 AM on Sunday 23 Nov 2014 (Local Time) from KLXV Reporting Station
Light Snow Light Snow  
Wind Chill: 16°   Ceiling: 2900
Heat Index: 25°   Visibility: 2.5mi
Dew Point: 23°   Wind: 8mph
Humidity: 92%   Direction: 20°NNE
Pressure: 29.69"   Gusts: NA
Location:  39.3236°N, 106.55°W
Report Text: KLXV 230741Z AUTO 02007KT 2 1/2SM -SN BR OVC029 M04/M05 A2969 RMK AO2 P0000 T10391050
Loading
Personal Weather Stations






























Interactive Weather Map New forecast layout! Learn more

10-Day Weather Forecast

Advertisements
Track Severe Weather on mobile